SBOSBO NTE / LFRS
Speedbird OnlineSpeedbird Online NTE / LFRS

Nantes Atlantique Airport
20:42 4°C

Location Nantes, France
Latitude: 47.153198242200006
Longitude: -1.61073005199
Local Time 20:42 on 23 Feb 2024
UTC +1 hours (Europe/Paris)
Currency £1 equals EUR 1.17
METAR LFRS 231930Z AUTO 21005KT CAVOK 04/02 Q0996 TEMPO VRB15G30KT 4500 -SHRA BKN035 SCT050CB
TAF TAF LFRS 231700Z 2318/2424 24008KT 9999 BKN035 TEMPO 2318/2321 VRB15G30KT 4500 -SHRA BKN035 SCT050CB TEMPO 2406/2414 VRB15G25KT 2500 SHRA BKN014 SCT050CB
Weather As Of 23 Feb 2024 20:42
Description Clear sky
Wind 9 km/h from South-West (210°)
Cloud Cover 0%
Precipitation Rain: none, Snow: none
Sunrise 07:59
Sunset 18:41
Rotations During the last 90 days there were
1 flights from LHR
1 flights to LHR
Web Wikipedia
Codes IATA: NTE
ICAO: LFRS
Altitude 27 Meter / 90 Feet
Distance 501 KM / 311 Miles
from London.
Runways
RunwayLength (m)Surface
032900Asphalt
212900Asphalt
Radio
TypeDescriptionFrequency
APPAPP130.275
ATISATIS126.925
GNDGND121.875
INFOINFO129.875
TWRTWR118.65
Live ATC



Support Speedbird Online

© 2017-2024 Speedbird Online